Time;durP1;ratioP1;P1;durP2;ratioP2;P2;SDS_P1;SDS_P2;PMS_P1;PMS_P2;Temp;Humidity;BMP_temperature;BMP_pressure;BME280_temperature;BME280_humidity;BME280_pressure;Samples;Min_cycle;Max_cycle;Signal;HPM_P1;HPM_P2
2022/03/31 00:00:10;;;;;;;;;54.00;39.00;;;;;11.12;60.21;99696.19;5056022;28;45414;-51
2022/03/31 00:02:36;;;;;;;;;55.00;43.75;;;;;11.15;60.34;99706.50;5056085;28;45239;-49
2022/03/31 00:05:01;;;;;;;;;54.00;40.25;;;;;11.12;59.71;99692.69;5059014;28;45332;-51
2022/03/31 00:07:26;;;;;;;;;45.75;39.00;;;;;11.18;59.84;99700.81;5059699;28;46601;-51
2022/03/31 00:09:52;;;;;;;;;46.00;35.50;;;;;11.19;60.06;99704.31;5059278;28;45357;-50
2022/03/31 00:12:17;;;;;;;;;44.50;36.25;;;;;11.19;59.59;99704.31;5059715;28;45893;-51
2022/03/31 00:14:43;;;;;;;;;51.00;39.00;;;;;11.17;59.70;99698.34;5059589;28;45415;-51
2022/03/31 00:17:08;;;;;;;;;56.50;39.75;;;;;11.19;59.71;99699.00;5059070;28;46319;-47
2022/03/31 00:19:34;;;;;;;;;54.75;38.25;;;;;11.16;59.66;99694.84;5059275;28;45316;-49
2022/03/31 00:21:59;;;;;;;;;42.50;37.50;;;;;11.19;59.39;99699.81;5059159;28;45977;-46
2022/03/31 00:24:24;;;;;;;;;46.75;37.00;;;;;11.15;59.44;99697.69;5059576;28;45425;-52
2022/03/31 00:26:50;;;;;;;;;51.25;39.50;;;;;11.13;59.48;99697.03;5059068;28;46167;-48
2022/03/31 00:29:15;;;;;;;;;50.00;37.25;;;;;11.09;59.63;99691.25;5059093;28;45341;-46
2022/03/31 00:31:41;;;;;;;;;49.50;38.25;;;;;11.02;59.27;99684.94;5059918;28;45342;-50
2022/03/31 00:34:06;;;;;;;;;52.50;38.25;;;;;11.01;59.12;99683.31;5059786;28;45473;-50
2022/03/31 00:36:32;;;;;;;;;36.50;30.25;;;;;10.98;58.85;99686.31;5059357;28;45584;-51
2022/03/31 00:41:41;;;;;;;;;48.25;32.50;;;;;10.85;58.79;99680.72;5059630;28;45482;-51
2022/03/31 00:44:08;;;;;;;;;41.25;35.50;;;;;10.80;58.26;99675.09;5059615;28;45288;-49
2022/03/31 00:46:34;;;;;;;;;46.25;35.25;;;;;10.83;58.67;99678.25;5058956;28;46167;-49
2022/03/31 00:49:01;;;;;;;;;44.25;31.75;;;;;10.82;58.48;99673.91;5058569;28;45473;-46
2022/03/31 00:51:28;;;;;;;;;40.75;29.00;;;;;10.70;58.67;99649.56;5058818;28;45280;-47
2022/03/31 00:53:53;;;;;;;;;40.50;32.25;;;;;10.81;58.63;99672.25;5058929;28;45371;-51
2022/03/31 00:56:19;;;;;;;;;46.75;29.75;;;;;10.79;58.73;99662.78;5058451;28;46621;-48
2022/03/31 00:58:45;;;;;;;;;37.25;32.75;;;;;10.78;59.13;99663.78;5058827;28;45444;-49
2022/03/31 01:01:13;;;;;;;;;47.00;38.00;;;;;10.67;58.87;99646.41;5058623;28;45333;-46
2022/03/31 01:03:39;;;;;;;;;40.50;35.00;;;;;10.71;58.86;99645.88;5059210;28;45371;-49
2022/03/31 01:06:05;;;;;;;;;45.25;29.75;;;;;10.78;58.36;99658.47;5058343;28;46205;-48
2022/03/31 01:08:31;;;;;;;;;36.75;29.75;;;;;10.79;58.37;99654.81;5057816;28;45416;-48
2022/03/31 01:10:57;;;;;;;;;37.25;30.25;;;;;10.78;58.17;99651.31;5058771;28;45207;-45
2022/03/31 01:13:22;;;;;;;;;35.50;33.00;;;;;10.80;58.37;99648.50;5058637;28;45188;-49
2022/03/31 01:15:48;;;;;;;;;37.25;31.00;;;;;10.77;58.56;99647.00;5057182;28;45306;-48
2022/03/31 01:18:13;;;;;;;;;46.75;36.75;;;;;10.78;58.40;99647.84;5058242;28;45322;-52
2022/03/31 01:20:39;;;;;;;;;40.00;32.50;;;;;10.79;58.50;99644.16;5058272;28;45540;-52
2022/03/31 01:23:10;;;;;;;;;43.25;35.00;;;;;10.80;58.30;99640.53;5058536;28;45473;-50
2022/03/31 01:25:35;;;;;;;;;40.00;32.25;;;;;10.79;58.32;99644.16;5058108;28;47020;-44
2022/03/31 01:28:00;;;;;;;;;37.00;29.50;;;;;10.77;58.06;99638.19;5057842;28;45298;-51
2022/03/31 01:30:26;;;;;;;;;41.50;32.25;;;;;10.74;57.83;99642.88;5058352;28;45458;-49
2022/03/31 01:32:52;;;;;;;;;42.25;32.50;;;;;10.73;58.13;99643.03;5058519;28;45241;-49
2022/03/31 01:35:19;;;;;;;;;35.25;28.25;;;;;10.68;58.37;99630.28;5058013;28;46412;-51
2022/03/31 01:37:45;;;;;;;;;41.00;29.75;;;;;10.67;58.16;99633.13;5057828;28;45382;-49
2022/03/31 01:40:11;;;;;;;;;36.75;28.50;;;;;10.65;58.71;99629.78;5058032;28;45244;-49
2022/03/31 01:42:37;;;;;;;;;39.25;31.00;;;;;10.61;58.54;99634.63;5058230;28;45321;-50
2022/03/31 01:45:05;;;;;;;;;49.75;35.50;;;;;10.54;58.79;99627.53;5057743;28;46200;-49
2022/03/31 01:47:31;;;;;;;;;43.25;32.75;;;;;10.51;58.70;99623.38;5057766;28;45365;-48
2022/03/31 01:49:56;;;;;;;;;55.75;38.25;;;;;10.50;58.92;99621.72;5057922;28;45258;-50
2022/03/31 01:52:22;;;;;;;;;45.50;33.00;;;;;10.44;59.24;99617.09;5057979;28;45187;-48
2022/03/31 01:54:49;;;;;;;;;44.00;35.75;;;;;10.35;58.96;99607.50;5057636;28;45512;-46
2022/03/31 01:57:14;;;;;;;;;40.25;29.75;;;;;10.39;59.67;99616.78;5057780;28;45405;-51
2022/03/31 01:59:43;;;;;;;;;41.75;38.00;;;;;10.31;59.54;99607.00;5057939;28;45322;-51
2022/03/31 02:02:12;;;;;;;;;42.00;36.25;;;;;10.32;59.53;99607.84;5058001;28;45248;-45
2022/03/31 02:04:37;;;;;;;;;41.25;35.50;;;;;10.20;59.32;99583.47;5057331;28;47011;-50
2022/03/31 02:07:03;;;;;;;;;46.75;34.50;;;;;10.23;60.00;99607.84;5057464;28;45389;-47
2022/03/31 02:09:29;;;;;;;;;43.00;36.00;;;;;10.20;59.72;99602.06;5057557;28;45325;-45
2022/03/31 02:11:54;;;;;;;;;59.00;32.25;;;;;10.18;60.43;99604.03;5057887;28;45227;-46
2022/03/31 02:14:20;;;;;;;;;32.50;28.50;;;;;10.15;60.27;99607.03;5057344;28;45326;-50
2022/03/31 02:16:46;;;;;;;;;48.00;35.75;;;;;10.11;59.64;99605.72;5057262;28;45328;-49
2022/03/31 02:19:12;;;;;;;;;49.75;38.50;;;;;10.00;60.32;99598.97;5057758;28;45564;-52
2022/03/31 02:21:37;;;;;;;;;52.00;36.00;;;;;10.05;60.22;99601.94;5057350;28;45401;-51
2022/03/31 02:24:03;;;;;;;;;55.25;38.75;;;;;10.03;60.97;99603.94;5057107;28;45305;-52
2022/03/31 02:26:29;;;;;;;;;52.50;39.00;;;;;10.00;60.78;99598.97;5056963;28;45431;-51
2022/03/31 02:28:54;;;;;;;;;48.25;40.50;;;;;10.01;60.83;99600.63;5057372;28;45383;-50
2022/03/31 02:31:19;;;;;;;;;58.25;41.25;;;;;10.00;60.89;99607.75;5057769;28;45462;-51
2022/03/31 02:33:45;;;;;;;;;58.00;39.50;;;;;10.00;60.92;99606.94;5057206;28;45329;-50
2022/03/31 02:36:11;;;;;;;;;58.75;40.25;;;;;9.97;61.67;99601.97;5056988;28;45404;-51
2022/03/31 02:38:36;;;;;;;;;52.50;37.50;;;;;9.97;61.32;99600.13;5057166;28;45424;-49
2022/03/31 02:41:04;;;;;;;;;48.50;37.75;;;;;9.97;61.24;99609.94;5057453;28;45365;-54
2022/03/31 02:43:30;;;;;;;;;51.75;41.25;;;;;9.93;62.06;99604.13;5057024;28;46439;-51
2022/03/31 02:45:56;;;;;;;;;62.25;40.25;;;;;9.87;61.85;99599.50;5056963;28;45252;-50
2022/03/31 02:48:21;;;;;;;;;49.25;39.25;;;;;9.88;61.90;99608.28;5057045;28;45376;-50
2022/03/31 02:50:46;;;;;;;;;59.25;42.75;;;;;9.83;62.11;99605.31;5057144;28;45501;-49
2022/03/31 02:55:55;;;;;;;;;59.00;43.25;;;;;9.75;62.54;99609.66;5056963;28;45299;-50
2022/03/31 02:58:20;;;;;;;;;42.25;39.50;;;;;9.67;61.83;99598.22;5057053;28;45411;-51
2022/03/31 03:00:46;;;;;;;;;62.00;45.50;;;;;9.58;61.91;99588.59;5057108;28;45210;-50
2022/03/31 03:03:11;;;;;;;;;64.50;43.25;;;;;9.66;62.49;99602.69;5056754;28;46790;-49
2022/03/31 03:05:37;;;;;;;;;62.50;43.00;;;;;9.61;62.97;99599.72;5056906;28;45459;-52
2022/03/31 03:08:03;;;;;;;;;62.75;45.50;;;;;9.60;62.14;99605.19;5056615;28;45290;-46
2022/03/31 03:10:29;;;;;;;;;60.00;45.00;;;;;9.58;62.77;99599.22;5057036;28;45457;-49
2022/03/31 03:12:56;;;;;;;;;60.00;46.00;;;;;9.54;62.32;99592.59;5056386;28;46215;-48
2022/03/31 03:15:22;;;;;;;;;64.25;48.00;;;;;9.47;62.64;99587.94;5056522;28;45510;-52
2022/03/31 03:17:47;;;;;;;;;60.00;45.50;;;;;9.46;63.08;99586.28;5056700;28;45232;-50
2022/03/31 03:20:14;;;;;;;;;64.25;44.50;;;;;9.39;62.40;99580.00;5056860;28;45232;-50
2022/03/31 03:22:44;;;;;;;;;52.75;39.00;;;;;9.39;62.63;99582.63;5056567;28;45496;-50
2022/03/31 03:25:11;;;;;;;;;63.00;44.75;;;;;9.35;63.51;99577.84;5056526;28;45417;-50
2022/03/31 03:27:38;;;;;;;;;63.75;46.75;;;;;9.34;62.17;99568.22;5056495;28;45329;-49
2022/03/31 03:30:04;;;;;;;;;66.50;46.00;;;;;9.31;62.94;99571.19;5056852;28;45191;-51
2022/03/31 03:32:30;;;;;;;;;61.25;44.25;;;;;9.29;62.53;99567.91;5056376;28;45512;-47
2022/03/31 03:34:55;;;;;;;;;66.25;47.75;;;;;9.19;63.01;99553.00;5056510;28;45456;-50
2022/03/31 03:37:21;;;;;;;;;62.25;46.50;;;;;9.24;63.07;99563.94;5056575;28;45373;-47
2022/03/31 03:39:46;;;;;;;;;66.00;48.00;;;;;9.25;62.96;99564.75;5059072;28;45487;-47
2022/03/31 03:42:12;;;;;;;;;71.25;48.75;;;;;9.24;63.68;99563.94;5060188;28;45387;-48
2022/03/31 03:44:38;;;;;;;;;63.75;45.25;;;;;9.21;63.03;99558.13;5059930;28;45434;-49
2022/03/31 03:47:04;;;;;;;;;60.00;45.00;;;;;9.20;62.77;99559.94;5060507;28;45329;-45
2022/03/31 03:49:30;;;;;;;;;65.25;50.00;;;;;9.15;62.82;99556.16;5060360;28;45366;-52
2022/03/31 03:51:55;;;;;;;;;58.50;43.00;;;;;9.17;63.12;99568.22;5060034;28;46246;-51
2022/03/31 03:54:21;;;;;;;;;64.75;47.25;;;;;9.15;63.78;99567.59;5059885;28;45321;-49
2022/03/31 03:56:46;;;;;;;;;60.50;48.00;;;;;9.12;64.00;99572.38;5059793;28;45451;-49
2022/03/31 03:59:11;;;;;;;;;66.75;46.75;;;;;9.11;63.09;99579.53;5059920;28;45355;-49
2022/03/31 04:01:37;;;;;;;;;60.50;46.00;;;;;9.12;62.99;99577.69;5059514;28;46306;-52
2022/03/31 04:04:03;;;;;;;;;67.00;49.25;;;;;9.07;62.81;99577.38;5059493;28;45436;-49
2022/03/31 04:06:28;;;;;;;;;63.00;46.75;;;;;9.08;62.42;99581.66;5059783;28;45294;-53
2022/03/31 04:08:53;;;;;;;;;65.75;44.75;;;;;9.05;63.41;99582.00;5059433;28;45464;-50
2022/03/31 04:11:19;;;;;;;;;64.00;44.25;;;;;9.00;62.13;99580.66;5059308;28;46102;-49
2022/03/31 04:13:46;;;;;;;;;64.00;47.00;;;;;8.99;62.18;99575.53;5059437;28;45215;-49
2022/03/31 04:16:12;;;;;;;;;62.50;46.25;;;;;8.98;62.77;99582.66;5059540;28;45350;-51
2022/03/31 04:18:38;;;;;;;;;58.50;42.00;;;;;8.85;62.28;99562.91;5059796;28;45460;-52
2022/03/31 04:21:04;;;;;;;;;62.50;45.50;;;;;8.91;61.98;99575.53;5059257;28;46968;-50
2022/03/31 04:23:29;;;;;;;;;68.00;48.50;;;;;8.95;62.50;99582.16;5059670;28;45468;-50
2022/03/31 04:25:54;;;;;;;;;61.00;46.00;;;;;8.97;62.31;99581.00;5059452;28;45352;-53
2022/03/31 04:28:20;;;;;;;;;57.25;44.75;;;;;8.98;63.17;99572.06;5059472;28;45379;-48
2022/03/31 04:30:45;;;;;;;;;54.25;41.50;;;;;9.00;62.28;99585.97;5059012;28;45330;-50
2022/03/31 04:33:11;;;;;;;;;64.50;44.00;;;;;9.00;62.36;99579.84;5059018;28;45317;-48
2022/03/31 04:35:36;;;;;;;;;62.00;44.50;;;;;9.00;62.89;99590.44;5059320;28;45326;-48
2022/03/31 04:38:03;;;;;;;;;64.00;43.75;;;;;9.00;62.77;99585.16;5059408;28;45414;-50
2022/03/31 04:40:28;;;;;;;;;64.25;45.50;;;;;9.01;61.61;99589.44;5058751;28;45994;-51
2022/03/31 04:42:54;;;;;;;;;62.25;43.50;;;;;8.98;61.50;99581.84;5058950;28;45412;-52
2022/03/31 04:45:19;;;;;;;;;59.50;45.50;;;;;9.00;61.80;99593.09;5059083;28;45363;-51
2022/03/31 04:47:45;;;;;;;;;57.50;42.75;;;;;9.00;61.19;99593.09;5059339;28;45204;-51
2022/03/31 04:50:12;;;;;;;;;62.50;44.25;;;;;9.00;62.38;99590.44;5058491;28;46046;-52
2022/03/31 04:52:38;;;;;;;;;69.25;46.50;;;;;8.99;62.05;99589.63;5058644;28;45349;-51
2022/03/31 04:55:04;;;;;;;;;60.50;46.00;;;;;8.99;61.16;99586.16;5058614;28;45475;-51
2022/03/31 04:57:29;;;;;;;;;62.50;45.00;;;;;8.97;62.52;99586.31;5058910;28;45385;-52
2022/03/31 04:59:55;;;;;;;;;65.50;45.25;;;;;8.98;62.28;99571.22;5058545;28;45932;-48
2022/03/31 05:02:20;;;;;;;;;65.00;46.00;;;;;8.91;61.55;99565.75;5058744;28;45409;-50
2022/03/31 05:04:45;;;;;;;;;66.50;46.00;;;;;8.95;61.51;99579.50;5058684;28;45447;-51
2022/03/31 05:07:11;;;;;;;;;57.25;44.25;;;;;8.91;62.19;99576.34;5059048;28;45423;-49
2022/03/31 05:09:36;;;;;;;;;63.00;48.25;;;;;8.87;61.58;99568.91;5058195;28;45333;-50
2022/03/31 05:12:02;;;;;;;;;63.25;47.75;;;;;8.85;61.95;99581.47;5058067;28;45511;-51
2022/03/31 05:14:27;;;;;;;;;62.00;45.50;;;;;8.82;62.72;99581.81;5058585;28;45353;-49
2022/03/31 05:16:53;;;;;;;;;58.75;43.50;;;;;8.76;62.02;99580.63;5058370;28;45256;-49
2022/03/31 05:19:18;;;;;;;;;65.00;47.00;;;;;8.78;61.50;99588.44;5058262;28;47126;-53
2022/03/31 05:21:43;;;;;;;;;63.50;45.25;;;;;8.73;61.67;99587.09;5058128;28;45268;-49
2022/03/31 05:24:09;;;;;;;;;68.25;48.00;;;;;8.72;62.24;99600.50;5058180;28;45229;-49
2022/03/31 05:26:35;;;;;;;;;56.25;42.50;;;;;8.69;61.50;99596.38;5058450;28;45272;-49
2022/03/31 05:29:00;;;;;;;;;65.25;46.50;;;;;8.63;62.01;99591.72;5057888;28;45999;-52
2022/03/31 05:31:26;;;;;;;;;54.25;45.25;;;;;8.70;62.29;99600.69;5058296;28;45310;-48
2022/03/31 05:33:51;;;;;;;;;61.00;46.00;;;;;8.70;62.69;99600.69;5058253;28;45380;-49
2022/03/31 05:36:17;;;;;;;;;58.00;41.75;;;;;8.70;62.02;99600.69;5058192;28;45219;-51
2022/03/31 05:38:42;;;;;;;;;63.00;44.50;;;;;8.71;62.47;99601.50;5057903;28;46186;-48
2022/03/31 05:41:07;;;;;;;;;66.25;46.50;;;;;8.67;62.20;99595.69;5057751;28;45314;-50
2022/03/31 05:43:33;;;;;;;;;49.75;42.50;;;;;8.65;62.36;99605.66;5057913;28;45287;-51
2022/03/31 05:45:58;;;;;;;;;65.25;44.00;;;;;8.70;61.79;99610.47;5057240;28;45345;-51
2022/03/31 05:48:24;;;;;;;;;68.00;44.00;;;;;8.68;62.70;99608.00;5056474;28;45499;-48
2022/03/31 05:50:49;;;;;;;;;61.00;46.75;;;;;8.69;62.26;99617.59;5056682;28;45441;-47
2022/03/31 05:53:15;;;;;;;;;65.50;47.00;;;;;8.70;62.32;99611.28;5057583;28;45412;-48
2022/03/31 05:55:40;;;;;;;;;68.75;53.00;;;;;8.72;62.99;99611.97;5057810;28;45286;-48
2022/03/31 05:58:07;;;;;;;;;72.50;50.75;;;;;8.78;62.00;99614.97;5057457;28;47014;-49
2022/03/31 06:00:33;;;;;;;;;69.00;52.50;;;;;8.83;62.20;99620.59;5057516;28;45375;-47
2022/03/31 06:02:58;;;;;;;;;72.50;51.00;;;;;8.87;62.49;99621.94;5056763;28;45357;-51
2022/03/31 06:05:24;;;;;;;;;64.50;51.00;;;;;8.97;62.32;99627.91;5057750;28;45462;-50
2022/03/31 06:07:52;;;;;;;;;71.50;53.75;;;;;9.03;62.04;99627.25;5057419;28;45269;-50
2022/03/31 06:10:19;;;;;;;;;71.50;52.50;;;;;8.95;62.44;99606.03;5056926;28;45439;-49
2022/03/31 06:12:45;;;;;;;;;77.25;53.00;;;;;9.06;62.21;99621.63;5057008;28;45437;-50
2022/03/31 06:15:11;;;;;;;;;69.00;53.00;;;;;9.13;62.83;99632.41;5057731;28;45309;-49
2022/03/31 06:17:40;;;;;;;;;77.50;53.75;;;;;9.18;62.10;99633.56;5057036;28;45440;-52
2022/03/31 06:20:07;;;;;;;;;78.75;59.25;;;;;9.22;62.79;99640.19;5057231;28;45249;-50
2022/03/31 06:22:32;;;;;;;;;72.75;53.75;;;;;9.24;62.50;99629.44;5057472;28;45397;-51
2022/03/31 06:24:58;;;;;;;;;69.25;56.00;;;;;9.25;61.98;99623.97;5057090;28;45377;-50
2022/03/31 06:27:23;;;;;;;;;77.00;56.50;;;;;9.32;62.53;99636.56;5057152;28;45946;-50
2022/03/31 06:29:49;;;;;;;;;76.50;57.25;;;;;9.32;61.79;99648.03;5056995;28;45465;-53
2022/03/31 06:32:15;;;;;;;;;72.50;54.25;;;;;9.33;61.87;99646.19;5057484;28;45477;-50
2022/03/31 06:34:41;;;;;;;;;78.50;55.50;;;;;9.30;62.04;99643.84;5057525;28;45527;-51
2022/03/31 06:37:08;;;;;;;;;72.50;53.75;;;;;9.33;61.77;99648.84;5056875;28;45516;-49
2022/03/31 06:39:33;;;;;;;;;75.00;56.75;;;;;9.33;62.03;99659.47;5057293;28;45264;-49
2022/03/31 06:41:58;;;;;;;;;76.00;55.50;;;;;9.35;62.14;99663.59;5057012;28;45756;-45
2022/03/31 06:44:24;;;;;;;;;72.50;52.25;;;;;9.38;61.77;99667.75;5057299;28;45272;-46
2022/03/31 06:46:51;;;;;;;;;73.25;56.00;;;;;9.39;61.99;99658.78;5057063;28;47194;-49
2022/03/31 06:49:16;;;;;;;;;76.50;53.25;;;;;9.39;61.93;99658.78;5056805;28;45236;-47
2022/03/31 06:51:43;;;;;;;;;81.50;55.50;;;;;9.39;62.13;99648.16;5057134;28;45336;-45
2022/03/31 06:54:09;;;;;;;;;72.00;56.00;;;;;9.39;62.20;99642.88;5057085;28;45322;-47
2022/03/31 06:56:35;;;;;;;;;78.75;56.75;;;;;9.44;61.71;99649.34;5056643;28;47204;-50
2022/03/31 06:59:02;;;;;;;;;74.50;54.00;;;;;9.45;61.06;99650.19;5056839;28;45400;-50
2022/03/31 07:01:27;;;;;;;;;74.00;53.50;;;;;9.41;60.83;99632.94;5056837;28;45417;-49
2022/03/31 07:03:54;;;;;;;;;80.50;55.50;;;;;9.52;61.53;99637.88;5057110;28;45475;-50
2022/03/31 07:06:21;;;;;;;;;72.25;54.25;;;;;9.57;61.09;99629.44;5056664;28;46135;-45
2022/03/31 07:08:47;;;;;;;;;78.50;55.25;;;;;9.62;61.49;99627.94;5055829;28;45365;-49
2022/03/31 07:11:13;;;;;;;;;75.50;52.25;;;;;9.73;60.73;99629.38;5056829;28;45400;-52
2022/03/31 07:13:39;;;;;;;;;83.00;57.00;;;;;9.81;61.08;99625.91;5058050;28;45206;-50
2022/03/31 07:16:05;;;;;;;;;75.75;51.75;;;;;9.87;60.20;99630.56;5060229;28;45928;-49
2022/03/31 07:18:31;;;;;;;;;67.50;47.75;;;;;9.90;59.78;99630.19;5060287;28;45321;-50
2022/03/31 07:20:59;;;;;;;;;70.25;47.75;;;;;9.96;60.11;99625.03;5060147;28;45357;-48
2022/03/31 07:23:26;;;;;;;;;71.00;49.75;;;;;10.09;59.84;99629.81;5061138;28;45834;-45
2022/03/31 07:26:00;;;;;;;;;71.50;50.25;;;;;10.23;59.19;99637.06;5063390;28;47133;-46
2022/03/31 07:28:26;;;;;;;;;55.75;44.25;;;;;10.38;58.87;99637.22;5057151;28;45358;-46
2022/03/31 07:30:53;;;;;;;;;64.75;47.75;;;;;10.49;58.46;99631.53;5057496;28;45444;-49
2022/03/31 07:33:20;;;;;;;;;58.00;41.75;;;;;10.52;58.11;99637.50;5057453;28;45508;-48
2022/03/31 07:35:47;;;;;;;;;64.00;48.25;;;;;10.48;58.05;99635.19;5057238;28;46118;-46
2022/03/31 07:38:14;;;;;;;;;62.00;46.50;;;;;10.33;58.55;99620.16;5057266;28;45476;-49
2022/03/31 07:40:41;;;;;;;;;59.75;48.00;;;;;10.39;58.92;99640.72;5056845;28;45900;-50
2022/03/31 07:43:07;;;;;;;;;57.00;43.00;;;;;10.33;59.16;99641.41;5057310;28;45482;-51
2022/03/31 07:45:36;;;;;;;;;76.75;53.75;;;;;10.14;59.17;99622.16;5056850;28;46082;-46
2022/03/31 07:48:05;;;;;;;;;69.75;49.75;;;;;10.22;59.47;99646.06;5056686;28;45529;-47
2022/03/31 07:50:31;;;;;;;;;67.25;48.75;;;;;10.18;59.87;99638.59;5057000;28;45749;-48
2022/03/31 07:52:57;;;;;;;;;62.25;41.75;;;;;10.20;59.42;99637.44;5057041;28;45508;-46
2022/03/31 07:55:23;;;;;;;;;67.00;49.25;;;;;10.18;59.80;99643.91;5056656;28;45883;-48
2022/03/31 07:57:50;;;;;;;;;63.50;46.75;;;;;10.17;59.92;99642.25;5056493;28;45784;-48
2022/03/31 08:00:17;;;;;;;;;73.75;49.00;;;;;10.14;60.14;99639.94;5056595;28;45538;-48
2022/03/31 08:02:45;;;;;;;;;66.25;49.25;;;;;10.11;60.50;99648.25;5057115;28;46413;-49
2022/03/31 08:05:12;;;;;;;;;67.50;49.00;;;;;9.96;60.30;99629.53;5055656;28;45402;-54
2022/03/31 08:07:38;;;;;;;;;58.50;45.25;;;;;10.03;60.96;99643.81;5055561;28;45516;-48
2022/03/31 08:10:05;;;;;;;;;68.25;49.75;;;;;10.05;60.56;99652.41;5056974;28;45521;-48
2022/03/31 08:12:31;;;;;;;;;69.50;48.75;;;;;10.00;60.78;99655.59;5056881;28;45440;-51
2022/03/31 08:14:57;;;;;;;;;67.75;46.75;;;;;9.91;60.98;99653.13;5056580;28;45556;-47
2022/03/31 08:17:23;;;;;;;;;59.75;47.75;;;;;9.87;61.77;99659.78;5056178;28;45386;-49
2022/03/31 08:19:48;;;;;;;;;72.75;52.00;;;;;9.81;62.02;99663.09;5055858;28;45421;-49
2022/03/31 08:22:15;;;;;;;;;62.50;46.25;;;;;9.75;62.51;99662.75;5055917;28;45828;-46
2022/03/31 08:24:40;;;;;;;;;69.50;51.00;;;;;9.72;63.52;99662.25;5037873;28;45546;-50
2022/03/31 08:27:05;;;;;;;;;68.50;51.25;;;;;9.25;63.36;99604.56;5056201;28;45514;-49
2022/03/31 08:29:31;;;;;;;;;61.25;49.00;;;;;9.57;63.62;99672.75;5056136;28;45498;-50
2022/03/31 08:31:57;;;;;;;;;36.25;26.00;;;;;9.43;63.43;99682.19;5056801;28;45463;-50
2022/03/31 08:34:23;;;;;;;;;39.00;29.75;;;;;9.35;62.46;99699.91;5056165;28;46095;-51
2022/03/31 08:36:48;;;;;;;;;28.00;20.00;;;;;9.19;62.27;99711.38;5056304;28;45471;-46
2022/03/31 08:39:13;;;;;;;;;28.75;19.00;;;;;9.08;63.38;99709.00;5056463;28;45361;-46
2022/03/31 08:41:39;;;;;;;;;21.50;16.50;;;;;8.95;63.27;99715.59;5037941;28;45575;-48
2022/03/31 08:44:05;;;;;;;;;32.25;23.00;;;;;8.86;63.69;99726.38;5056020;28;46147;-48
2022/03/31 08:46:34;;;;;;;;;27.25;22.00;;;;;8.73;63.32;99725.00;5056724;28;45480;-50
2022/03/31 08:49:00;;;;;;;;;18.75;18.00;;;;;8.63;62.82;99729.56;5056088;28;45407;-43
2022/03/31 08:51:27;;;;;;;;;15.00;14.75;;;;;8.55;62.71;99734.00;5056256;28;45513;-47
2022/03/31 08:53:52;;;;;;;;;19.75;15.00;;;;;8.50;63.07;99747.72;5055964;28;47282;-45
2022/03/31 08:56:18;;;;;;;;;21.75;18.25;;;;;8.44;62.17;99738.59;5055608;28;45803;-47
2022/03/31 08:58:45;;;;;;;;;13.00;12.25;;;;;8.36;62.77;99751.78;5038136;28;46018;-50
2022/03/31 09:01:14;;;;;;;;;18.00;14.50;;;;;8.19;62.82;99750.00;5056118;28;45576;-46
2022/03/31 09:03:40;;;;;;;;;16.25;13.75;;;;;8.16;62.21;99759.09;5055670;28;46237;-48
2022/03/31 09:06:07;;;;;;;;;14.00;14.00;;;;;8.11;62.45;99758.72;5055872;28;45357;-47
2022/03/31 09:08:33;;;;;;;;;13.25;10.50;;;;;8.10;62.95;99772.13;5055842;28;45791;-47
2022/03/31 09:11:00;;;;;;;;;14.25;10.75;;;;;8.08;62.64;99777.56;5056059;28;45444;-46
2022/03/31 09:13:38;;;;;;;;;10.50;9.00;;;;;8.07;62.34;99789.16;5055443;28;45526;-46
2022/03/31 09:16:06;;;;;;;;;9.00;8.00;;;;;8.03;62.95;99786.97;5055445;28;45520;-53
2022/03/31 09:18:36;;;;;;;;;11.75;10.00;;;;;8.00;62.56;99793.41;5055529;28;45574;-45
2022/03/31 09:21:04;;;;;;;;;14.00;11.00;;;;;7.98;62.27;99798.84;5055846;28;45507;-49
2022/03/31 09:23:38;;;;;;;;;10.75;8.75;;;;;7.93;61.60;99798.50;5055399;28;45443;-47
2022/03/31 09:26:07;;;;;;;;;9.50;4.00;;;;;7.87;61.64;99808.84;5055418;28;45472;-49
2022/03/31 09:28:33;;;;;;;;;14.25;9.25;;;;;7.77;61.71;99808.09;5055643;28;45441;-51
2022/03/31 09:30:58;;;;;;;;;10.50;8.50;;;;;7.71;61.99;99814.81;5055551;28;45434;-47
2022/03/31 09:33:29;;;;;;;;;9.75;8.00;;;;;7.66;62.26;99814.44;5055000;28;46196;-45
2022/03/31 09:35:59;;;;;;;;;10.25;9.00;;;;;7.64;61.88;99821.72;5054148;28;45466;-50
2022/03/31 09:38:25;;;;;;;;;13.25;9.25;;;;;7.55;62.08;99819.97;5055396;28;45445;-47
2022/03/31 09:40:51;;;;;;;;;12.75;10.50;;;;;7.50;62.75;99820.44;5058163;28;45599;-50
2022/03/31 09:43:17;;;;;;;;;10.50;8.00;;;;;7.57;63.28;99840.00;5056683;28;45317;-47
2022/03/31 09:45:43;;;;;;;;;14.50;14.50;;;;;7.58;63.36;99838.19;5058001;28;45253;-48
2022/03/31 09:48:21;;;;;;;;;10.00;7.50;;;;;7.61;62.93;99836.06;5057895;28;45303;-48
2022/03/31 09:50:47;;;;;;;;;12.00;9.75;;;;;7.61;62.19;99840.53;5057997;28;45255;-47
2022/03/31 09:53:13;;;;;;;;;8.00;8.00;;;;;7.59;62.81;99839.88;5057644;28;46024;-51
2022/03/31 09:55:42;;;;;;;;;11.25;8.00;;;;;7.60;62.46;99838.88;5057849;28;45461;-50
2022/03/31 09:58:08;;;;;;;;;9.50;6.00;;;;;7.62;62.54;99836.91;5057558;28;45326;-49
2022/03/31 10:00:34;;;;;;;;;8.50;8.50;;;;;7.57;62.54;99837.34;5057764;28;45409;-46
2022/03/31 10:03:00;;;;;;;;;9.50;7.25;;;;;7.61;62.40;99828.13;5057540;28;45325;-46
2022/03/31 10:05:27;;;;;;;;;8.50;8.50;;;;;7.65;62.38;99834.78;5039316;28;45378;-49
2022/03/31 10:07:54;;;;;;;;;8.75;7.25;;;;;7.63;62.44;99839.41;5057898;28;45255;-48
2022/03/31 10:10:19;;;;;;;;;9.50;8.75;;;;;7.65;62.42;99848.03;5057750;28;45448;-47
2022/03/31 10:13:15;;;;;;;;;10.75;6.00;;;;;7.66;61.57;99847.03;5057001;28;46193;-46
2022/03/31 10:15:42;;;;;;;;;7.00;6.00;;;;;7.67;61.87;99848.72;5056992;28;45357;-48
2022/03/31 10:18:08;;;;;;;;;9.50;8.25;;;;;7.64;62.21;99853.47;5057770;28;45324;-47
2022/03/31 10:20:33;;;;;;;;;11.00;9.00;;;;;7.68;62.55;99858.31;5057606;28;45603;-45
2022/03/31 10:25:46;;;;;;;;;6.25;6.00;;;;;7.75;61.84;99869.97;5057094;28;45355;-47
2022/03/31 10:28:14;;;;;;;;;16.75;10.00;;;;;7.75;62.07;99859.41;5057289;28;45491;-48
2022/03/31 10:30:56;;;;;;;;;11.50;7.75;;;;;7.81;61.05;99876.50;5057399;28;45548;-46
2022/03/31 10:33:38;;;;;;;;;11.50;6.75;;;;;7.70;61.21;99840.47;5056954;28;45425;-47
2022/03/31 10:36:12;;;;;;;;;13.75;12.00;;;;;7.84;61.29;99862.13;5056963;28;45439;-48
2022/03/31 10:38:39;;;;;;;;;9.75;7.75;;;;;7.87;61.77;99852.03;5057272;28;45455;-46
2022/03/31 10:41:08;;;;;;;;;9.00;9.00;;;;;7.95;60.97;99854.75;5057251;28;45216;-47
2022/03/31 10:43:44;;;;;;;;;6.00;6.00;;;;;8.05;61.10;99856.50;5056574;28;46221;-48
2022/03/31 10:46:18;;;;;;;;;6.25;3.25;;;;;8.13;60.47;99846.84;5056860;28;45274;-48
2022/03/31 10:48:52;;;;;;;;;10.50;5.00;;;;;8.28;60.43;99867.47;5056849;28;45383;-49
2022/03/31 10:51:18;;;;;;;;;3.25;3.25;;;;;8.31;59.82;99851.28;5057102;28;45184;-51
2022/03/31 10:53:50;;;;;;;;;5.75;4.25;;;;;8.42;59.78;99840.44;5056683;28;46221;-50
2022/03/31 10:56:19;;;;;;;;;10.25;3.50;;;;;8.47;59.49;99833.72;5057026;28;45344;-46
2022/03/31 10:58:45;;;;;;;;;6.00;6.00;;;;;8.58;59.74;99839.72;5056703;28;45410;-51
2022/03/31 11:01:11;;;;;;;;;4.00;4.00;;;;;8.60;59.87;99843.06;5057155;28;45463;-46
2022/03/31 11:03:37;;;;;;;;;5.00;2.00;;;;;8.56;58.48;99831.13;5056862;28;45313;-48
2022/03/31 11:06:10;;;;;;;;;2.00;2.00;;;;;8.79;59.07;99849.97;5055965;28;45345;-51
2022/03/31 11:08:40;;;;;;;;;2.50;2.50;;;;;8.81;58.63;99837.41;5056845;28;45863;-47
2022/03/31 11:11:06;;;;;;;;;4.50;2.00;;;;;8.96;58.73;99857.00;5057060;28;45441;-44
2022/03/31 11:13:37;;;;;;;;;3.50;3.00;;;;;8.94;58.28;99848.41;5056291;28;47166;-50
2022/03/31 11:16:04;;;;;;;;;3.75;2.50;;;;;8.92;57.74;99848.53;5056751;28;45512;-49
2022/03/31 11:18:30;;;;;;;;;5.75;4.50;;;;;8.94;58.02;99845.75;5056753;28;45463;-47
2022/03/31 11:21:00;;;;;;;;;4.00;4.00;;;;;8.94;57.13;99856.34;5056854;28;45196;-48
2022/03/31 11:23:28;;;;;;;;;5.00;2.75;;;;;8.88;57.43;99863.09;5056669;28;47257;-45
2022/03/31 11:25:54;;;;;;;;;6.50;6.00;;;;;8.86;57.95;99862.44;5056559;28;45414;-45
2022/03/31 11:28:20;;;;;;;;;9.25;6.75;;;;;8.87;57.45;99857.97;5056700;28;45262;-47